Time;durP1;ratioP1;P1;durP2;ratioP2;P2;SDS_P1;SDS_P2;PMS_P1;PMS_P2;Temp;Humidity;BMP_temperature;BMP_pressure;BME280_temperature;BME280_humidity;BME280_pressure;Samples;Min_cycle;Max_cycle;Signal;HPM_P1;HPM_P2
2023/10/13 00:01:23;;;;;;;9.68;5.95;;;;;;;16.65;100.00;101170.97;5090021;28;19905;-36
2023/10/13 00:03:51;;;;;;;;;;;;;;;16.69;100.00;101168.56;5090075;28;20034;-35
2023/10/13 00:06:18;;;;;;;;;;;;;;;16.69;100.00;101174.00;5090672;28;19904;-36
2023/10/13 00:08:43;;;;;;;9.23;6.28;;;;;;;16.65;100.00;101168.25;5083221;28;20393;-36
2023/10/13 00:11:11;;;;;;;;;;;;;;;16.67;100.00;101160.59;5076770;28;20024;-36
2023/10/13 00:13:49;;;;;;;10.50;6.72;;;;;;;16.65;100.00;101160.06;5091835;28;19908;-36
2023/10/13 00:16:17;;;;;;;12.10;7.22;;;;;;;16.57;100.00;101141.44;5076974;28;20029;-35
2023/10/13 00:18:43;;;;;;;8.77;6.60;;;;;;;16.63;100.00;101155.94;5076700;28;20017;-36
2023/10/13 00:21:13;;;;;;;9.60;5.70;;;;;;;16.66;100.00;101158.16;5076982;28;20111;-35
2023/10/13 00:23:52;;;;;;;8.63;6.00;;;;;;;16.65;100.00;101149.13;5075989;28;20028;-36
2023/10/13 00:26:28;;;;;;;8.43;5.45;;;;;;;16.51;100.00;101122.56;5076606;28;20032;-36
2023/10/13 00:31:36;;;;;;;10.02;6.30;;;;;;;16.63;100.00;101151.28;5076029;28;20082;-35
2023/10/13 00:34:19;;;;;;;10.57;6.35;;;;;;;16.62;100.00;101151.56;5075644;28;20035;-36
2023/10/13 00:39:28;;;;;;;12.45;6.10;;;;;;;16.55;100.00;101129.16;5075606;28;20039;-36
2023/10/13 00:41:58;;;;;;;;;;;;;;;16.64;100.00;101139.31;5076795;28;20360;-35
2023/10/13 00:44:38;;;;;;;8.93;5.35;;;;;;;16.50;100.00;101127.19;5076251;28;19908;-35
2023/10/13 00:47:07;;;;;;;8.48;5.32;;;;;;;16.52;100.00;101125.03;5075986;28;20490;-36
2023/10/13 00:49:39;;;;;;;8.55;5.32;;;;;;;16.54;100.00;101130.22;5075601;28;20353;-36
2023/10/13 00:52:10;;;;;;;7.68;5.18;;;;;;;16.54;100.00;101127.47;5076432;28;20026;-35
2023/10/13 00:54:37;;;;;;;6.93;4.78;;;;;;;16.47;100.00;101127.72;5076367;28;20107;-36
2023/10/13 00:57:26;;;;;;;9.02;5.10;;;;;;;16.52;100.00;101124.19;5075790;28;20052;-35
2023/10/13 00:59:53;;;;;;;6.30;4.88;;;;;;;16.51;100.00;101128.84;5075744;28;20016;-35
2023/10/13 01:05:09;;;;;;;9.52;5.32;;;;;;;16.51;100.00;101109.72;5075943;28;20040;-35
2023/10/13 01:07:37;;;;;;;8.15;5.00;;;;;;;16.52;100.00;101113.28;5075246;28;20025;-35
2023/10/13 01:10:13;;;;;;;8.27;5.38;;;;;;;16.50;100.00;101108.09;5074938;28;20028;-36
2023/10/13 01:12:38;;;;;;;12.57;5.38;;;;;;;16.52;100.00;101108.66;5075712;28;20037;-36
2023/10/13 01:15:07;;;;;;;;;;;;;;;16.56;100.00;101101.56;5075483;28;20047;-36
2023/10/13 01:17:33;;;;;;;7.75;4.43;;;;;;;16.50;100.00;101099.91;5075847;28;19908;-36
2023/10/13 01:19:59;;;;;;;;;;;;;;;16.54;100.00;101097.44;5075159;28;20089;-36
2023/10/13 01:22:25;;;;;;;8.13;4.32;;;;;;;16.50;100.00;101094.44;5074898;28;20336;-35
2023/10/13 01:24:51;;;;;;;;;;;;;;;16.52;100.00;101089.53;5075996;28;20441;-36
2023/10/13 01:27:25;;;;;;;6.88;4.25;;;;;;;16.42;100.00;101081.28;5074866;28;19930;-36
2023/10/13 01:29:55;;;;;;;7.38;4.30;;;;;;;16.31;100.00;101069.50;5075621;28;20035;-35
2023/10/13 01:32:23;;;;;;;7.80;4.30;;;;;;;16.42;100.00;101084.84;5075051;28;20029;-35
2023/10/13 01:34:49;;;;;;;7.70;4.38;;;;;;;16.42;100.00;101075.84;5074633;28;20476;-35
2023/10/13 01:37:19;;;;;;;6.88;4.03;;;;;;;16.41;100.00;101076.91;5074575;28;20098;-36
2023/10/13 01:39:47;;;;;;;7.57;4.07;;;;;;;16.33;100.00;101063.75;5074543;28;20035;-35
2023/10/13 01:42:14;;;;;;;6.50;4.25;;;;;;;16.39;100.00;101065.44;5075171;28;20032;-35
2023/10/13 01:44:40;;;;;;;9.05;5.20;;;;;;;16.37;100.00;101056.69;5074947;28;20021;-36
2023/10/13 01:47:06;;;;;;;;;;;;;;;16.42;100.00;101059.44;5075492;28;20031;-36
2023/10/13 01:49:42;;;;;;;7.95;4.20;;;;;;;16.36;100.00;101055.88;5074999;28;19919;-36
2023/10/13 01:52:11;;;;;;;8.70;4.43;;;;;;;16.36;100.00;101046.88;5074399;28;20434;-36
2023/10/13 01:54:40;;;;;;;6.93;3.92;;;;;;;16.31;100.00;101038.66;5074275;28;20372;-36
2023/10/13 01:57:13;;;;;;;8.07;4.13;;;;;;;16.27;100.00;101024.72;5074913;28;20040;-36
2023/10/13 01:59:43;;;;;;;5.63;4.05;;;;;;;16.34;100.00;101038.13;5074734;28;20035;-36
2023/10/13 02:02:13;;;;;;;8.05;4.15;;;;;;;16.35;100.00;101026.13;5074247;28;20065;-36
2023/10/13 02:04:48;;;;;;;9.32;4.05;;;;;;;16.30;100.00;101023.34;5074143;28;20032;-36
2023/10/13 02:07:17;;;;;;;7.27;3.73;;;;;;;16.27;100.00;101007.53;5074959;28;20040;-35
2023/10/13 02:09:45;;;;;;;7.80;3.65;;;;;;;16.33;100.00;101022.84;5074294;28;20017;-36
2023/10/13 02:12:10;;;;;;;9.02;4.38;;;;;;;16.32;100.00;101005.63;5074020;28;20064;-35
2023/10/13 02:14:38;;;;;;;;;;;;;;;16.37;100.00;101013.03;5074077;28;20021;-35
2023/10/13 02:17:12;;;;;;;9.25;4.07;;;;;;;16.31;100.00;101011.38;5073892;28;20051;-36
2023/10/13 02:19:44;;;;;;;6.57;4.05;;;;;;;16.30;100.00;101020.63;5073651;28;20025;-36
2023/10/13 02:22:10;;;;;;;6.75;4.10;;;;;;;16.29;100.00;101010.78;5074434;28;20027;-36
2023/10/13 02:24:39;;;;;;;8.15;4.30;;;;;;;16.30;100.00;101012.44;5073529;28;20484;-35
2023/10/13 02:27:13;;;;;;;8.13;4.15;;;;;;;16.29;100.00;101021.72;5073544;28;20048;-36
2023/10/13 02:29:39;;;;;;;9.20;5.63;;;;;;;16.27;100.00;101007.53;5073743;28;20099;-35
2023/10/13 02:32:12;;;;;;;9.27;5.25;;;;;;;16.21;100.00;100993.84;5074354;28;20028;-36
2023/10/13 02:34:43;;;;;;;9.25;5.10;;;;;;;16.24;100.00;100997.94;5074533;28;20167;-36
2023/10/13 02:37:09;;;;;;;9.18;5.05;;;;;;;16.28;100.00;100993.59;5073588;28;20021;-35
2023/10/13 02:39:36;;;;;;;;;;;;;;;16.33;100.00;100990.09;5073799;28;20016;-36
2023/10/13 02:42:06;;;;;;;7.85;5.53;;;;;;;16.27;100.00;100978.31;5074491;28;19999;-35
2023/10/13 02:44:36;;;;;;;12.50;6.32;;;;;;;16.29;100.00;100967.13;5073594;28;20143;-36
2023/10/13 02:47:05;;;;;;;10.75;5.53;;;;;;;16.27;100.00;100952.94;5073814;28;20551;-36
2023/10/13 02:49:33;;;;;;;8.50;5.97;;;;;;;16.27;100.00;100959.22;5073488;28;20025;-36
2023/10/13 02:52:04;;;;;;;8.98;5.70;;;;;;;16.28;100.00;100946.41;5073838;28;20025;-36
2023/10/13 02:54:31;;;;;;;10.32;6.55;;;;;;;16.30;100.00;100941.50;5073475;28;20029;-36
2023/10/13 02:56:57;;;;;;;9.38;6.50;;;;;;;16.29;100.00;100939.84;5073273;28;20036;-36
2023/10/13 02:59:34;;;;;;;;;;;;;;;16.33;100.00;100936.31;5073999;28;20035;-36
2023/10/13 03:02:25;;;;;;;8.83;6.97;;;;;;;16.27;100.00;100922.94;5073252;28;19928;-36
2023/10/13 03:04:52;;;;;;;11.15;7.25;;;;;;;16.33;100.00;100924.59;5073392;28;20258;-36
2023/10/13 03:07:23;;;;;;;9.15;7.03;;;;;;;16.29;100.00;100912.56;5073404;28;20020;-36
2023/10/13 03:09:50;;;;;;;12.98;8.48;;;;;;;16.34;100.00;100912.59;5073087;28;20028;-36
2023/10/13 03:12:16;;;;;;;11.68;7.88;;;;;;;16.33;100.00;100909.03;5073391;28;20048;-36
2023/10/13 03:14:47;;;;;;;11.85;8.63;;;;;;;16.31;100.00;100883.94;5073584;28;20027;-36
2023/10/13 03:17:22;;;;;;;11.93;8.23;;;;;;;16.34;100.00;100896.22;5073478;28;20028;-36
2023/10/13 03:19:50;;;;;;;10.32;8.35;;;;;;;16.31;100.00;100886.66;5074056;28;20364;-35
2023/10/13 03:22:16;;;;;;;12.07;9.23;;;;;;;16.30;100.00;100870.53;5073865;28;20028;-35
2023/10/13 03:24:46;;;;;;;13.15;9.57;;;;;;;16.29;100.00;100868.91;5073004;28;20142;-36
2023/10/13 03:27:16;;;;;;;14.60;10.45;;;;;;;16.31;100.00;100866.75;5074055;28;20024;-35
2023/10/13 03:29:43;;;;;;;17.38;10.73;;;;;;;16.32;100.00;100865.66;5072885;28;20109;-36
2023/10/13 03:32:15;;;;;;;13.40;9.95;;;;;;;16.38;100.00;100873.56;5073490;28;20151;-36
2023/10/13 03:37:41;;;;;;;14.88;10.82;;;;;;;16.41;100.00;100850.41;5073134;28;20025;-36
2023/10/13 03:43:07;;;;;;;15.30;11.32;;;;;;;16.43;100.00;100831.84;5073429;28;20036;-37
2023/10/13 03:45:42;;;;;;;17.30;12.63;;;;;;;16.46;100.00;100836.75;5077108;28;20020;-36
2023/10/13 03:48:11;;;;;;;15.23;11.50;;;;;;;16.45;100.00;100830.50;5077123;28;20460;-36
2023/10/13 03:51:01;;;;;;;15.43;10.77;;;;;;;16.46;100.00;100834.03;5076796;28;20247;-45
2023/10/13 03:53:27;;;;;;;17.50;12.13;;;;;;;16.50;100.00;100826.94;5076624;28;20028;-36
2023/10/13 03:56:08;;;;;;;;;;;;;;;16.52;100.00;100822.03;5077308;28;20039;-36
2023/10/13 03:58:45;;;;;;;21.17;13.82;;;;;;;16.54;100.00;100827.19;5077236;28;20003;-35
2023/10/13 04:01:14;;;;;;;17.88;14.38;;;;;;;16.55;100.00;100824.22;5076784;28;20052;-36
2023/10/13 04:03:56;;;;;;;19.98;14.30;;;;;;;16.59;100.00;100808.94;5076419;28;20024;-35
2023/10/13 04:06:43;;;;;;;19.02;14.25;;;;;;;16.60;100.00;100796.94;5077031;28;20024;-35
2023/10/13 04:17:26;;;;;;;20.55;15.48;;;;;;;16.64;100.00;100768.00;5076691;28;20039;-36
2023/10/13 04:33:35;;;;;;;17.48;14.05;;;;;;;16.78;100.00;100764.72;5076004;28;20119;-36
2023/10/13 04:36:20;;;;;;;18.67;13.80;;;;;;;16.79;100.00;100756.28;5076803;28;20032;-36
2023/10/13 04:41:22;;;;;;;21.15;14.40;;;;;;;16.81;100.00;100742.34;5076407;28;20516;-36
2023/10/13 04:43:57;;;;;;;17.80;14.07;;;;;;;16.77;100.00;100744.78;5075684;28;20021;-36
2023/10/13 04:46:39;;;;;;;16.45;12.52;;;;;;;16.87;100.00;100754.88;5075825;28;20024;-36
2023/10/13 04:49:09;;;;;;;19.70;13.02;;;;;;;16.89;100.00;100758.19;5075683;28;20048;-36
2023/10/13 04:54:29;;;;;;;16.13;12.30;;;;;;;16.93;100.00;100753.78;5075746;28;20510;-36
2023/10/13 05:00:52;;;;;;;11.77;9.52;;;;;;;16.99;100.00;100747.25;5075846;28;20182;-36
2023/10/13 06:29:25;;;;;;;8.38;5.30;;;;;;;17.07;100.00;100656.50;5074156;28;20031;-35
2023/10/13 06:31:50;;;;;;;;;;;;;;;17.12;100.00;100653.75;5074264;28;20024;-36
2023/10/13 06:34:16;;;;;;;10.67;5.40;;;;;;;17.08;100.00;100649.97;5073465;28;19908;-35
2023/10/13 06:36:42;;;;;;;;;;;;;;;17.11;100.00;100638.47;5073835;28;20300;-36
2023/10/13 06:39:34;;;;;;;9.40;5.72;;;;;;;17.06;100.00;100632.22;5073471;28;19915;-36
2023/10/13 06:42:00;;;;;;;8.23;5.10;;;;;;;17.05;100.00;100631.41;5074087;28;20457;-36
2023/10/13 06:44:25;;;;;;;;;;;;;;;17.10;100.00;100627.81;5073818;28;20032;-36
2023/10/13 06:46:52;;;;;;;10.63;5.53;;;;;;;17.05;100.00;100631.41;5073643;28;19909;-36
2023/10/13 06:49:18;;;;;;;9.90;5.15;;;;;;;16.98;100.00;100615.31;5073232;28;20669;-36
2023/10/13 06:51:46;;;;;;;;;;;;;;;17.07;100.00;100621.00;5074287;28;20024;-36
2023/10/13 06:54:19;;;;;;;9.60;5.53;;;;;;;17.04;100.00;100618.03;5073217;28;20371;-36
2023/10/13 06:56:45;;;;;;;10.05;5.50;;;;;;;17.02;100.00;100598.34;5073338;28;20062;-36
2023/10/13 06:59:13;;;;;;;10.88;6.03;;;;;;;17.06;100.00;100607.63;5073749;28;20415;-36
2023/10/13 07:01:40;;;;;;;8.55;5.28;;;;;;;17.01;100.00;100597.53;5073448;28;20502;-36
2023/10/13 07:04:16;;;;;;;13.57;5.53;;;;;;;17.09;100.00;100596.16;5073389;28;20099;-36
2023/10/13 07:06:47;;;;;;;10.77;5.67;;;;;;;17.09;100.00;100596.16;5074246;28;20112;-36
2023/10/13 07:09:39;;;;;;;10.27;5.55;;;;;;;17.11;100.00;100591.22;5073391;28;20281;-36
2023/10/13 07:12:01;;;;;;;13.20;5.93;;;;;;;17.16;100.00;100594.72;5073871;28;20060;-36
2023/10/13 07:14:27;;;;;;;10.35;5.63;;;;;;;17.09;100.00;100577.84;5073348;28;20025;-35
2023/10/13 07:16:59;;;;;;;;;;;;;;;17.20;100.00;100587.59;5074592;28;20035;-36
2023/10/13 07:19:28;;;;;;;13.32;5.60;;;;;;;17.21;100.00;100569.28;5076217;28;19912;-36
2023/10/13 07:21:59;;;;;;;11.93;5.63;;;;;;;17.09;100.00;100541.50;5077190;28;20055;-36
2023/10/13 07:24:32;;;;;;;11.07;5.53;;;;;;;17.24;100.00;100564.09;5077644;28;20368;-36
2023/10/13 07:27:07;;;;;;;11.70;5.65;;;;;;;17.26;100.00;100561.06;5077230;28;20531;-36
2023/10/13 07:29:35;;;;;;;10.68;5.50;;;;;;;17.23;100.00;100551.53;5077511;28;20025;-36
2023/10/13 07:32:12;;;;;;;11.00;4.95;;;;;;;17.34;100.00;100559.66;5077139;28;20054;-36
2023/10/13 07:34:39;;;;;;;10.90;5.38;;;;;;;17.34;100.00;100578.81;5077079;28;20407;-36
2023/10/13 07:37:08;;;;;;;9.45;4.78;;;;;;;17.33;100.00;100566.25;5077749;28;20054;-36
2023/10/13 07:39:33;;;;;;;11.25;4.90;;;;;;;17.41;100.00;100579.28;5076617;28;20025;-36
2023/10/13 07:42:15;;;;;;;;;;;;;;;17.47;100.00;100565.31;5078214;28;20024;-36
2023/10/13 07:44:45;;;;;;;13.15;5.20;;;;;;;17.50;100.00;100564.75;5076817;28;19911;-36
2023/10/13 07:47:11;;;;;;;10.13;4.68;;;;;;;17.56;100.00;100565.50;5076498;28;20047;-36
2023/10/13 07:49:37;;;;;;;;;;;;;;;17.63;100.00;100555.09;5076900;28;20029;-36
2023/10/13 07:54:49;;;;;;;9.52;4.82;;;;;;;17.63;100.00;100546.88;5076712;28;20029;-36
2023/10/13 07:57:17;;;;;;;10.73;4.55;;;;;;;17.67;100.00;100558.06;5077008;28;20365;-36
2023/10/13 07:59:49;;;;;;;14.38;5.13;;;;;;;17.72;100.00;100545.19;5076594;28;20055;-36
2023/10/13 08:02:33;;;;;;;12.20;5.35;;;;;;;17.75;100.00;100544.63;5077383;28;20020;-36
2023/10/13 08:05:00;;;;;;;9.65;4.35;;;;;;;17.73;100.00;100533.16;5076375;28;20083;-36
2023/10/13 08:07:28;;;;;;;;;;;;;;;17.84;100.00;100536.63;5077257;28;20360;-36
2023/10/13 08:09:54;;;;;;;9.93;4.72;;;;;;;17.83;100.00;100543.19;5076687;28;20259;-36
2023/10/13 08:12:21;;;;;;;;;;;;;;;17.91;100.00;100549.97;5076804;28;20031;-36
2023/10/13 08:14:47;;;;;;;12.48;4.75;;;;;;;17.94;100.00;100532.97;5076888;28;19909;-36
2023/10/13 08:17:14;;;;;;;9.52;4.20;;;;;;;18.00;100.00;100526.34;5076128;28;20021;-36
2023/10/13 08:19:39;;;;;;;9.23;4.15;;;;;;;18.04;100.00;100526.59;5076784;28;20024;-36
2023/10/13 08:45:20;;;;;;;9.57;4.25;;;;;;;18.65;100.00;100510.34;5075463;28;20025;-36
2023/10/13 08:50:48;;;;;;;9.75;4.10;;;;;;;18.75;100.00;100514.91;5076157;28;20039;-36
2023/10/13 08:53:31;;;;;;;11.63;4.40;;;;;;;18.80;100.00;100514.00;5076249;28;20035;-36
2023/10/13 09:12:18;;;;;;;7.80;4.18;;;;;;;19.01;100.00;100482.47;5075449;28;20029;-36
2023/10/13 09:14:44;;;;;;;8.98;4.10;;;;;;;19.03;100.00;100489.31;5075893;28;20025;-36
2023/10/13 09:17:12;;;;;;;11.25;4.63;;;;;;;19.03;100.00;100494.78;5074959;28;20024;-36
2023/10/13 09:19:55;;;;;;;9.77;4.40;;;;;;;18.97;100.00;100475.97;5074732;28;20356;-36
2023/10/13 09:22:28;;;;;;;9.60;4.75;;;;;;;18.93;100.00;100481.22;5074897;28;20098;-36
2023/10/13 09:24:58;;;;;;;10.95;4.40;;;;;;;18.95;100.00;100487.22;5074862;28;20048;-36
2023/10/13 09:27:27;;;;;;;13.25;4.50;;;;;;;18.96;100.00;100486.09;5075453;28;20353;-36
2023/10/13 09:29:57;;;;;;;11.18;4.72;;;;;;;18.89;100.00;100465.69;5075440;28;20026;-36
2023/10/13 09:32:23;;;;;;;8.05;4.25;;;;;;;18.98;100.00;100469.38;5075682;28;20068;-36
2023/10/13 09:34:51;;;;;;;;;;;;;;;19.04;100.00;100490.13;5075156;28;20051;-36
2023/10/13 09:37:20;;;;;;;9.05;4.47;;;;;;;19.04;100.00;100479.16;5074623;28;19963;-36
2023/10/13 09:39:52;;;;;;;12.45;4.72;;;;;;;19.12;100.00;100494.91;5074587;28;20031;-36
2023/10/13 09:42:18;;;;;;;10.43;4.07;;;;;;;19.18;100.00;100482.78;5073856;28;20522;-36
2023/10/13 09:44:51;;;;;;;9.95;4.28;;;;;;;19.20;100.00;100468.78;5075387;28;20021;-36
2023/10/13 09:47:36;;;;;;;14.10;5.05;;;;;;;19.29;100.00;100469.75;5074808;28;20370;-36
2023/10/13 09:50:05;;;;;;;8.70;3.60;;;;;;;19.29;100.00;100478.78;5074273;28;20020;-36
2023/10/13 09:52:31;;;;;;;11.10;4.50;;;;;;;19.29;100.00;100464.25;5075014;28;20078;-36
2023/10/13 09:55:00;;;;;;;9.45;4.05;;;;;;;19.39;100.00;100457.78;5074422;28;20040;-36
2023/10/13 09:57:34;;;;;;;12.50;5.10;;;;;;;19.45;100.00;100468.38;5074987;28;20052;-36
2023/10/13 10:00:29;;;;;;;10.43;4.35;;;;;;;19.58;100.00;100464.06;5075181;28;20035;-36
2023/10/13 10:02:58;;;;;;;10.40;4.13;;;;;;;19.66;100.00;100451.59;5073970;28;20095;-36
2023/10/13 10:05:26;;;;;;;6.95;3.90;;;;;;;19.70;100.00;100458.13;5075058;28;20025;-36
2023/10/13 10:07:58;;;;;;;13.05;4.18;;;;;;;19.75;100.00;100460.75;5074392;28;20032;-36
2023/10/13 10:10:36;;;;;;;8.68;4.20;;;;;;;19.76;100.00;100449.50;5073841;28;20032;-36
2023/10/13 10:13:16;;;;;;;9.88;4.07;;;;;;;19.72;100.00;100437.50;5074305;28;20078;-36
2023/10/13 10:15:47;;;;;;;11.05;4.57;;;;;;;19.71;100.00;100435.03;5074559;28;20024;-36
2023/10/13 10:18:25;;;;;;;12.85;4.10;;;;;;;19.68;100.00;100435.66;5073920;28;20104;-36
2023/10/13 10:20:55;;;;;;;9.75;4.05;;;;;;;19.65;100.00;100437.06;5074238;28;20028;-36
2023/10/13 10:23:43;;;;;;;12.57;4.50;;;;;;;19.60;100.00;100431.69;5074391;28;20031;-36
2023/10/13 10:26:20;;;;;;;10.48;4.63;;;;;;;19.57;100.00;100426.78;5073902;28;20033;-36
2023/10/13 10:28:46;;;;;;;12.45;3.80;;;;;;;19.56;100.00;100423.19;5073855;28;20563;-36
2023/10/13 10:31:12;;;;;;;11.65;4.65;;;;;;;19.54;100.00;100417.22;5074471;28;20036;-36
2023/10/13 10:33:39;;;;;;;9.43;4.55;;;;;;;19.53;100.00;100415.59;5074134;28;20028;-36
2023/10/13 10:36:05;;;;;;;14.73;4.35;;;;;;;19.54;100.00;100416.41;5073841;28;20031;-36
2023/10/13 10:38:37;;;;;;;11.13;5.05;;;;;;;19.62;100.00;100407.53;5073615;28;20025;-36
2023/10/13 10:41:06;;;;;;;12.18;4.35;;;;;;;19.69;100.00;100410.66;5074529;28;20033;-36
2023/10/13 10:46:18;;;;;;;7.45;4.25;;;;;;;19.77;100.00;100422.88;5073990;28;20448;-36
2023/10/13 10:48:44;;;;;;;14.25;4.00;;;;;;;19.83;100.00;100401.66;5073862;28;20043;-36
2023/10/13 10:51:31;;;;;;;12.32;4.18;;;;;;;19.88;100.00;100420.75;5074501;28;20024;-36
2023/10/13 10:53:58;;;;;;;13.38;4.35;;;;;;;19.91;100.00;100409.16;5073782;28;20028;-36
2023/10/13 10:56:36;;;;;;;8.85;4.40;;;;;;;20.03;100.00;100412.22;5074360;28;20368;-36
2023/10/13 10:59:04;;;;;;;10.65;4.35;;;;;;;20.12;100.00;100421.38;5074528;28;20073;-36
2023/10/13 11:01:33;;;;;;;10.00;4.28;;;;;;;20.19;100.00;100431.94;5073545;28;20036;-36
2023/10/13 11:04:08;;;;;;;13.75;4.50;;;;;;;20.22;100.00;100443.13;5073534;28;20021;-36
2023/10/13 11:06:41;;;;;;;11.02;4.60;;;;;;;20.21;100.00;100436.03;5073166;28;20029;-36
2023/10/13 11:09:18;;;;;;;11.68;3.88;;;;;;;20.21;100.00;100418.75;5073463;28;20036;-36
2023/10/13 11:11:45;;;;;;;10.02;4.53;;;;;;;20.32;100.00;100431.13;5073190;28;20029;-36
2023/10/13 11:14:22;;;;;;;8.10;4.55;;;;;;;20.36;100.00;100415.69;5073592;28;20415;-36
2023/10/13 11:16:53;;;;;;;11.40;3.83;;;;;;;20.33;100.00;100395.13;5073606;28;20078;-36
2023/10/13 11:19:34;;;;;;;8.85;4.28;;;;;;;20.29;100.00;100372.16;5073308;28;20050;-36
2023/10/13 11:22:35;;;;;;;14.88;5.05;;;;;;;20.27;100.00;100388.13;5073620;28;20143;-36
2023/10/13 11:25:12;;;;;;;10.85;4.70;;;;;;;20.19;100.00;100375.09;5073854;28;20050;-36
2023/10/13 11:27:55;;;;;;;15.35;4.88;;;;;;;20.17;100.00;100380.09;5073608;28;20033;-36
2023/10/13 11:30:25;;;;;;;11.82;4.00;;;;;;;20.22;100.00;100377.25;5073232;28;20024;-36
2023/10/13 11:33:06;;;;;;;12.52;4.70;;;;;;;20.30;100.00;100373.78;5073473;28;20051;-36
2023/10/13 11:38:27;;;;;;;9.88;4.43;;;;;;;20.38;100.00;100349.47;5073165;28;20024;-36
2023/10/13 11:43:52;;;;;;;11.48;4.93;;;;;;;20.50;100.00;100344.28;5073495;28;20028;-36
2023/10/13 11:51:44;;;;;;;10.40;4.55;;;;;;;20.66;100.00;100323.56;5073137;28;20033;-36
2023/10/13 11:54:17;;;;;;;13.20;4.78;;;;;;;20.62;100.00;100310.78;5072909;28;20036;-36
2023/10/13 11:56:43;;;;;;;13.25;4.97;;;;;;;20.70;100.00;100324.59;5073274;28;20069;-36
2023/10/13 11:59:17;;;;;;;12.00;5.00;;;;;;;20.71;100.00;100317.97;5073246;28;20108;-36
2023/10/13 12:04:40;;;;;;;11.50;5.00;;;;;;;20.77;100.00;100305.72;5073878;28;20039;-36
2023/10/13 12:07:39;;;;;;;10.88;4.78;;;;;;;20.86;100.00;100304.97;5076819;28;20376;-36
2023/10/13 12:10:14;;;;;;;11.82;4.63;;;;;;;20.90;100.00;100304.03;5077301;28;20039;-36
2023/10/13 12:12:41;;;;;;;9.10;4.45;;;;;;;20.95;100.00;100298.41;5077010;28;20021;-36
2023/10/13 12:15:24;;;;;;;12.98;5.00;;;;;;;20.93;100.00;100289.66;5076309;28;20025;-36
2023/10/13 12:17:50;;;;;;;11.93;4.80;;;;;;;21.07;100.00;100301.38;5077136;28;20028;-36
2023/10/13 12:20:25;;;;;;;9.50;4.25;;;;;;;21.11;100.00;100304.31;5076643;28;20103;-36
2023/10/13 12:22:55;;;;;;;12.98;5.05;;;;;;;21.18;100.00;100309.38;5077087;28;20078;-36
2023/10/13 12:28:06;;;;;;;13.00;4.68;;;;;;;21.27;100.00;100294.53;5076242;28;20033;-36
2023/10/13 12:30:48;;;;;;;14.20;5.80;;;;;;;21.36;100.00;100310.31;5076937;28;20028;-36
2023/10/13 12:33:16;;;;;;;9.73;4.68;;;;;;;21.33;100.00;100303.53;5076090;28;20095;-36
2023/10/13 12:36:03;;;;;;;13.55;5.03;;;;;;;21.33;100.00;100300.78;5076019;28;20031;-36
2023/10/13 12:49:49;;;;;;;12.55;4.72;;;;;;;21.37;100.00;100285.22;5075602;28;20090;-36
2023/10/13 12:52:19;;;;;;;9.73;4.43;;;;;;;21.47;100.00;100278.66;5076313;28;20062;-36
2023/10/13 12:57:32;;;;;;;17.33;4.82;;;;;;;21.46;100.00;100268.78;5075685;28;20048;-36
2023/10/13 12:59:58;;;;;;;12.15;4.15;;;;;;;21.53;100.00;100278.19;5076169;28;20348;-36
2023/10/13 13:02:25;;;;;;;13.95;4.43;;;;;;;21.54;100.00;100273.50;5075147;28;20021;-36
2023/10/13 13:04:57;;;;;;;14.07;4.63;;;;;;;21.56;100.00;100282.25;5075436;28;20028;-36
2023/10/13 13:07:29;;;;;;;10.63;4.13;;;;;;;21.58;100.00;100285.50;5075687;28;20376;-36
2023/10/13 13:09:58;;;;;;;10.38;3.97;;;;;;;21.59;100.00;100287.94;5075392;28;20078;-36
2023/10/13 13:12:24;;;;;;;12.98;4.47;;;;;;;21.55;100.00;100277.88;5075020;28;20024;-36
2023/10/13 13:14:54;;;;;;;11.82;3.97;;;;;;;21.50;100.00;100253.25;5075467;28;20020;-37
2023/10/13 13:17:20;;;;;;;11.80;4.32;;;;;;;21.32;100.00;100228.44;5075102;28;20032;-36
2023/10/13 13:19:45;;;;;;;11.07;4.03;;;;;;;21.56;100.00;100266.53;5075185;28;20020;-36
2023/10/13 13:22:13;;;;;;;9.20;4.35;;;;;;;21.52;100.00;100254.59;5075657;28;20032;-36
2023/10/13 13:24:46;;;;;;;12.48;4.90;;;;;;;21.64;100.00;100262.22;5075894;28;20158;-36
2023/10/13 13:27:19;;;;;;;9.13;3.95;;;;;;;21.65;100.00;100265.78;5075306;28;20073;-36
2023/10/13 13:29:45;;;;;;;10.75;4.28;;;;;;;21.65;100.00;100277.59;5075235;28;20032;-36
2023/10/13 13:32:23;;;;;;;9.05;4.13;;;;;;;21.69;100.00;100270.31;5074899;28;20029;-36
2023/10/13 13:35:04;;;;;;;9.00;3.70;;;;;;;21.68;100.00;100260.44;5075401;28;20021;-37
2023/10/13 13:37:29;;;;;;;7.68;3.65;;;;;;;21.58;100.00;100252.50;5075538;28;20029;-36
2023/10/13 13:39:55;;;;;;;8.70;3.75;;;;;;;21.55;100.00;100244.88;5074709;28;20027;-36
2023/10/13 13:42:20;;;;;;;11.55;4.30;;;;;;;21.57;100.00;100272.88;5075277;28;20024;-36
2023/10/13 13:44:46;;;;;;;13.52;4.43;;;;;;;21.51;100.00;100250.19;5074909;28;20024;-36
2023/10/13 13:47:12;;;;;;;13.63;3.33;;;;;;;21.56;100.00;100260.22;5074404;28;20082;-36
2023/10/13 13:49:50;;;;;;;12.73;4.03;;;;;;;21.57;100.00;100250.88;5074507;28;20027;-36
2023/10/13 13:52:21;;;;;;;11.32;3.60;;;;;;;21.55;100.00;100253.13;5074528;28;20028;-36
2023/10/13 13:54:47;;;;;;;13.90;4.45;;;;;;;21.49;100.00;100248.91;5074933;28;20375;-36
2023/10/13 13:57:13;;;;;;;9.10;3.92;;;;;;;21.45;100.00;100247.91;5074368;28;20177;-36
2023/10/13 13:59:39;;;;;;;12.90;4.03;;;;;;;21.41;100.00;100253.22;5074913;28;20054;-36
2023/10/13 14:02:18;;;;;;;11.13;4.65;;;;;;;21.38;100.00;100253.06;5075175;28;20028;-36
2023/10/13 14:04:46;;;;;;;7.90;3.58;;;;;;;21.37;100.00;100256.94;5075068;28;20027;-36
2023/10/13 14:07:12;;;;;;;8.00;3.60;;;;;;;21.38;100.00;100253.06;5075041;28;20451;-36
2023/10/13 14:09:43;;;;;;;13.75;3.40;;;;;;;21.41;100.00;100252.41;5074413;28;20025;-36
2023/10/13 14:14:56;;;;;;;9.68;3.70;;;;;;;21.44;100.00;100257.28;5074681;28;20578;-36
2023/10/13 14:17:35;;;;;;;8.43;3.97;;;;;;;21.47;100.00;100253.88;5073594;28;20031;-36
2023/10/13 14:20:00;;;;;;;8.27;3.63;;;;;;;21.45;100.00;100240.47;5074537;28;20031;-36
2023/10/13 14:22:26;;;;;;;12.00;3.92;;;;;;;21.50;100.00;100262.31;5074004;28;20028;-36
2023/10/13 14:24:55;;;;;;;8.18;3.05;;;;;;;21.44;100.00;100240.78;5074482;28;20112;-36
2023/10/13 14:27:23;;;;;;;11.32;3.67;;;;;;;21.52;100.00;100251.84;5073508;28;20035;-36
2023/10/13 14:29:52;;;;;;;8.13;3.70;;;;;;;21.54;100.00;100251.50;5073864;28;20024;-36
2023/10/13 14:32:19;;;;;;;8.90;3.63;;;;;;;21.48;100.00;100242.59;5073529;28;20020;-36
2023/10/13 14:34:48;;;;;;;12.60;3.60;;;;;;;21.58;100.00;100260.75;5074120;28;20097;-36
2023/10/13 14:37:14;;;;;;;10.02;3.80;;;;;;;21.49;100.00;100244.22;5073766;28;20040;-36
2023/10/13 14:39:40;;;;;;;11.77;3.88;;;;;;;21.54;100.00;100257.81;5073452;28;20036;-36
2023/10/13 14:42:05;;;;;;;11.00;4.60;;;;;;;21.51;100.00;100246.63;5073471;28;20345;-36
2023/10/13 14:44:35;;;;;;;8.57;3.30;;;;;;;21.56;100.00;100260.22;5073414;28;20035;-36
2023/10/13 14:47:01;;;;;;;11.05;3.75;;;;;;;21.55;100.00;100258.63;5073904;28;20471;-36
2023/10/13 14:49:27;;;;;;;11.13;4.20;;;;;;;21.40;100.00;100240.59;5073250;28;20020;-36
2023/10/13 14:51:55;;;;;;;11.30;3.85;;;;;;;21.48;100.00;100258.28;5073657;28;20151;-36
2023/10/13 14:54:32;;;;;;;9.82;3.97;;;;;;;21.47;99.77;100253.88;5073624;28;20046;-36
2023/10/13 14:56:58;;;;;;;11.15;4.22;;;;;;;21.50;100.00;100267.00;5073856;28;20157;-36
2023/10/13 14:59:24;;;;;;;8.57;3.58;;;;;;;21.47;100.00;100270.38;5073955;28;20026;-36
2023/10/13 15:01:49;;;;;;;9.95;3.80;;;;;;;21.36;100.00;100255.31;5073415;28;20020;-36
2023/10/13 15:04:15;;;;;;;7.18;3.38;;;;;;;21.36;100.00;100249.81;5073356;28;20025;-36
2023/10/13 15:06:40;;;;;;;9.30;3.90;;;;;;;21.24;100.00;100234.69;5073250;28;20360;-36